Reynolds, ND

3:50 AM CDT on May 23, 2017 (GMT -0500)
Jeff and Kari's | | Change Station

Elev 860 ft 47.57 °N, 96.93 °W | Updated 30 seconds ago

Overcast
Overcast
46.7 °F
Feels Like 47 °F
N
0.0
Wind Variable Wind from North
Gusts 0.0 mph

Today
High -- | Low -- °F
--% Chance of Precip.
Yesterday
High -- | Low -- °F
Precip. -- in
Pressure 29.94 in
Visibility 10.0 miles
Clouds Mostly Cloudy 1400 ft
Overcast 2000 ft
Windchill 47 °F
Dew Point 45 °F
Humidity 93%
Rainfall 0.02 in
Snow Depth Not available.
5:41 AM 9:09 PM
Waning Crescent, 9% visible
SPECI KGFK 230842Z AUTO 35012KT 10SM BKN014 OVC020 09/08 A2994 RMK AO2 RAB04E19 P0000 T00940078
Pressure 29.94 in
Visibility 10.0 miles
Clouds Mostly Cloudy 1400 ft
Overcast 2000 ft
Windchill 47 °F
Dew Point 45 °F
Humidity 93%
Rainfall 0.02 in
Snow Depth Not available.
5:41 AM 9:09 PM
Waning Crescent, 9% visible
SPECI KGFK 230842Z AUTO 35012KT 10SM BKN014 OVC020 09/08 A2994 RMK AO2 RAB04E19 P0000 T00940078

Get Severe Weather Alerts

Thanks for signing up!

Be on the lookout for a verification email in your inbox.

You'll start receiving the daily forecast at 6 AM.

×

10-Day Weather Forecast

Almanac

Astronomy

May. 23, 2017 Rise Set
Actual Time
Civil Twilight
Nautical Twilight
Astronomical Twilight
Moon
Length of Visible Light
Length of Day
Tomorrow will be .
, % of the Moon is Illuminated

Today's Extremes

State Highs State Lows

Community

WunderPhotos

Category 6

Welcome to Category 6. This is the collective home for Weather Underground's featured writeups by Dr. Jeff Masters (right), Bob Henson (left), Chris Burt, and other regular contributors.

Nearby

Air Quality

  Air Quality AQ Index Pollutant
Not available.

Snow Depth

Station Depth Elevation

Earthquake Activity

City Distance Mag. Time & Date
Minimum magnitude displayed is 2.5.

Coastal Water Temperatures

Place Temperature

Stations

Nearby Weather Stations

Station Location Temp. Windchill Dew Point Humidity Wind Precip. Elev Updated Type
                   

Watches & Warnings

There are currently no watches in effect.